sensor_id;sensor_type;location;lat;lon;timestamp;pressure;altitude;pressure_sealevel;temperature;humidity
3748;BME280;1889;50.058;8.688;2023-12-22T00:01:23;98792.05;;;8.19;100.00
3748;BME280;1889;50.058;8.688;2023-12-22T00:04:00;98793.41;;;8.34;100.00
3748;BME280;1889;50.058;8.688;2023-12-22T00:06:29;98804.11;;;8.41;100.00
3748;BME280;1889;50.058;8.688;2023-12-22T00:08:59;98810.27;;;8.53;100.00
3748;BME280;1889;50.058;8.688;2023-12-22T00:11:28;98826.45;;;8.53;99.58
3748;BME280;1889;50.058;8.688;2023-12-22T00:13:58;98816.16;;;8.47;98.52
3748;BME280;1889;50.058;8.688;2023-12-22T00:16:27;98804.47;;;8.13;95.97
3748;BME280;1889;50.058;8.688;2023-12-22T00:18:57;98816.90;;;8.21;94.77
3748;BME280;1889;50.058;8.688;2023-12-22T00:21:26;98850.41;;;7.62;93.86
3748;BME280;1889;50.058;8.688;2023-12-22T00:23:56;98845.95;;;7.50;95.27
3748;BME280;1889;50.058;8.688;2023-12-22T00:26:26;98836.20;;;7.87;97.65
3748;BME280;1889;50.058;8.688;2023-12-22T00:28:55;98834.20;;;8.12;97.82
3748;BME280;1889;50.058;8.688;2023-12-22T00:31:24;98845.31;;;8.20;97.58
3748;BME280;1889;50.058;8.688;2023-12-22T00:33:54;98845.88;;;7.37;94.54
3748;BME280;1889;50.058;8.688;2023-12-22T00:36:24;98831.52;;;7.68;97.92
3748;BME280;1889;50.058;8.688;2023-12-22T00:38:53;98844.58;;;7.69;97.50
3748;BME280;1889;50.058;8.688;2023-12-22T00:41:23;98853.92;;;8.10;97.97
3748;BME280;1889;50.058;8.688;2023-12-22T00:43:52;98846.36;;;8.29;97.72
3748;BME280;1889;50.058;8.688;2023-12-22T00:46:22;98828.05;;;8.58;96.81
3748;BME280;1889;50.058;8.688;2023-12-22T00:48:52;98828.05;;;8.58;96.81
3748;BME280;1889;50.058;8.688;2023-12-22T00:51:21;98814.75;;;8.77;96.89
3748;BME280;1889;50.058;8.688;2023-12-22T00:53:51;98819.30;;;8.86;96.18
3748;BME280;1889;50.058;8.688;2023-12-22T00:56:20;98831.38;;;8.63;94.78
3748;BME280;1889;50.058;8.688;2023-12-22T00:58:50;98817.49;;;8.74;95.29
3748;BME280;1889;50.058;8.688;2023-12-22T01:01:25;98807.45;;;8.87;95.62
3748;BME280;1889;50.058;8.688;2023-12-22T01:04:10;98824.00;;;9.02;94.30
3748;BME280;1889;50.058;8.688;2023-12-22T01:06:39;98830.81;;;8.82;93.58
3748;BME280;1889;50.058;8.688;2023-12-22T01:09:09;98831.72;;;8.80;94.22
3748;BME280;1889;50.058;8.688;2023-12-22T01:11:38;98834.91;;;8.90;94.11
3748;BME280;1889;50.058;8.688;2023-12-22T01:14:08;98847.73;;;8.99;94.26
3748;BME280;1889;50.058;8.688;2023-12-22T01:16:38;98839.41;;;9.13;93.87
3748;BME280;1889;50.058;8.688;2023-12-22T01:19:08;98832.38;;;9.27;92.59
3748;BME280;1889;50.058;8.688;2023-12-22T01:21:37;98833.89;;;9.34;92.52
3748;BME280;1889;50.058;8.688;2023-12-22T01:24:07;98848.64;;;9.11;92.43
3748;BME280;1889;50.058;8.688;2023-12-22T01:26:36;98848.64;;;9.11;92.43
3748;BME280;1889;50.058;8.688;2023-12-22T01:29:06;98853.14;;;9.21;91.96
3748;BME280;1889;50.058;8.688;2023-12-22T01:31:35;98853.39;;;9.13;90.33
3748;BME280;1889;50.058;8.688;2023-12-22T01:34:04;98878.48;;;8.21;87.89
3748;BME280;1889;50.058;8.688;2023-12-22T01:36:35;98878.48;;;8.21;87.89
3748;BME280;1889;50.058;8.688;2023-12-22T01:39:04;98886.09;;;7.99;93.72
3748;BME280;1889;50.058;8.688;2023-12-22T01:41:34;98931.86;;;7.52;96.91
3748;BME280;1889;50.058;8.688;2023-12-22T01:44:03;98954.39;;;7.75;97.09
3748;BME280;1889;50.058;8.688;2023-12-22T01:46:32;98894.81;;;7.14;98.71
3748;BME280;1889;50.058;8.688;2023-12-22T01:49:02;98924.13;;;6.91;96.50
3748;BME280;1889;50.058;8.688;2023-12-22T01:51:33;98924.13;;;6.91;96.50
3748;BME280;1889;50.058;8.688;2023-12-22T01:54:05;98955.03;;;6.93;96.21
3748;BME280;1889;50.058;8.688;2023-12-22T01:56:35;98942.20;;;7.21;97.60
3748;BME280;1889;50.058;8.688;2023-12-22T01:59:04;98938.16;;;7.25;97.37
3748;BME280;1889;50.058;8.688;2023-12-22T02:01:33;98933.16;;;7.34;96.90
3748;BME280;1889;50.058;8.688;2023-12-22T02:04:04;98952.27;;;7.38;96.42
3748;BME280;1889;50.058;8.688;2023-12-22T02:06:34;98951.39;;;7.55;97.26
3748;BME280;1889;50.058;8.688;2023-12-22T02:09:04;98957.36;;;7.44;95.24
3748;BME280;1889;50.058;8.688;2023-12-22T02:11:33;98955.91;;;7.31;96.10
3748;BME280;1889;50.058;8.688;2023-12-22T02:14:03;98952.76;;;7.16;97.47
3748;BME280;1889;50.058;8.688;2023-12-22T02:17:11;98944.64;;;6.71;94.92
3748;BME280;1889;50.058;8.688;2023-12-22T02:19:36;98936.36;;;6.49;96.69
3748;BME280;1889;50.058;8.688;2023-12-22T02:22:05;98947.76;;;6.46;97.57
3748;BME280;1889;50.058;8.688;2023-12-22T02:24:34;98951.61;;;6.70;98.83
3748;BME280;1889;50.058;8.688;2023-12-22T02:27:14;98950.38;;;6.46;95.74
3748;BME280;1889;50.058;8.688;2023-12-22T02:29:46;98956.92;;;6.24;96.22
3748;BME280;1889;50.058;8.688;2023-12-22T02:32:22;98937.23;;;6.29;96.99
3748;BME280;1889;50.058;8.688;2023-12-22T02:34:53;98934.74;;;6.23;95.02
3748;BME280;1889;50.058;8.688;2023-12-22T02:37:24;98925.20;;;6.20;95.94
3748;BME280;1889;50.058;8.688;2023-12-22T02:39:56;98917.19;;;6.29;96.04
3748;BME280;1889;50.058;8.688;2023-12-22T02:42:28;98911.59;;;6.25;96.13
3748;BME280;1889;50.058;8.688;2023-12-22T02:44:59;98918.69;;;6.62;97.12
3748;BME280;1889;50.058;8.688;2023-12-22T02:47:28;98923.86;;;7.03;97.23
3748;BME280;1889;50.058;8.688;2023-12-22T02:49:57;98929.73;;;7.31;96.94
3748;BME280;1889;50.058;8.688;2023-12-22T02:52:27;98937.05;;;7.53;96.01
3748;BME280;1889;50.058;8.688;2023-12-22T02:54:56;98942.57;;;7.77;95.51
3748;BME280;1889;50.058;8.688;2023-12-22T02:57:25;98921.91;;;7.98;95.01
3748;BME280;1889;50.058;8.688;2023-12-22T02:59:55;98919.20;;;8.18;94.87
3748;BME280;1889;50.058;8.688;2023-12-22T03:02:24;98922.56;;;8.39;94.81
3748;BME280;1889;50.058;8.688;2023-12-22T03:04:54;98912.34;;;8.45;94.67
3748;BME280;1889;50.058;8.688;2023-12-22T03:07:23;98911.36;;;8.49;93.53
3748;BME280;1889;50.058;8.688;2023-12-22T03:09:52;98907.98;;;8.74;93.88
3748;BME280;1889;50.058;8.688;2023-12-22T03:12:21;98907.98;;;8.74;93.88
3748;BME280;1889;50.058;8.688;2023-12-22T03:14:51;98906.41;;;8.97;92.87
3748;BME280;1889;50.058;8.688;2023-12-22T03:17:20;98906.41;;;8.97;92.87
3748;BME280;1889;50.058;8.688;2023-12-22T03:19:49;98902.22;;;8.91;91.71
3748;BME280;1889;50.058;8.688;2023-12-22T03:22:18;98889.20;;;9.01;92.16
3748;BME280;1889;50.058;8.688;2023-12-22T03:24:48;98878.53;;;9.21;92.00
3748;BME280;1889;50.058;8.688;2023-12-22T03:27:17;98894.65;;;9.23;91.29
3748;BME280;1889;50.058;8.688;2023-12-22T03:29:48;98899.59;;;8.76;89.17
3748;BME280;1889;50.058;8.688;2023-12-22T03:32:17;98899.59;;;8.76;89.17
3748;BME280;1889;50.058;8.688;2023-12-22T03:34:47;98919.94;;;8.54;89.25
3748;BME280;1889;50.058;8.688;2023-12-22T03:37:16;98924.08;;;8.92;90.38
3748;BME280;1889;50.058;8.688;2023-12-22T03:39:46;98903.63;;;9.01;89.70
3748;BME280;1889;50.058;8.688;2023-12-22T03:42:15;98914.27;;;8.84;87.63
3748;BME280;1889;50.058;8.688;2023-12-22T03:44:44;98926.91;;;8.99;89.90
3748;BME280;1889;50.058;8.688;2023-12-22T03:47:14;98926.84;;;9.15;90.20
3748;BME280;1889;50.058;8.688;2023-12-22T03:49:43;98939.89;;;8.89;88.82
3748;BME280;1889;50.058;8.688;2023-12-22T03:52:12;98913.59;;;9.05;89.24
3748;BME280;1889;50.058;8.688;2023-12-22T03:54:42;98924.00;;;9.08;88.47
3748;BME280;1889;50.058;8.688;2023-12-22T03:57:12;98940.44;;;9.00;87.63
3748;BME280;1889;50.058;8.688;2023-12-22T03:59:41;98920.95;;;8.64;89.35
3748;BME280;1889;50.058;8.688;2023-12-22T04:02:11;98916.23;;;8.46;89.82
3748;BME280;1889;50.058;8.688;2023-12-22T04:04:40;98899.92;;;8.80;90.23
3748;BME280;1889;50.058;8.688;2023-12-22T04:07:10;98885.55;;;8.92;89.50
3748;BME280;1889;50.058;8.688;2023-12-22T04:09:39;98901.28;;;8.35;89.30
3748;BME280;1889;50.058;8.688;2023-12-22T04:12:08;98895.14;;;8.51;91.03
3748;BME280;1889;50.058;8.688;2023-12-22T04:14:38;98884.02;;;8.85;90.78
3748;BME280;1889;50.058;8.688;2023-12-22T04:17:07;98881.45;;;8.98;90.43
3748;BME280;1889;50.058;8.688;2023-12-22T04:19:36;98889.34;;;8.23;89.78
3748;BME280;1889;50.058;8.688;2023-12-22T04:22:06;98884.55;;;8.23;91.09
3748;BME280;1889;50.058;8.688;2023-12-22T04:24:35;98886.30;;;8.22;92.15
3748;BME280;1889;50.058;8.688;2023-12-22T04:27:04;98873.42;;;8.60;91.41
3748;BME280;1889;50.058;8.688;2023-12-22T04:29:34;98883.22;;;8.08;91.59
3748;BME280;1889;50.058;8.688;2023-12-22T04:32:03;98893.13;;;8.28;93.32
3748;BME280;1889;50.058;8.688;2023-12-22T04:34:33;98899.07;;;8.65;92.22
3748;BME280;1889;50.058;8.688;2023-12-22T04:37:02;98901.46;;;8.73;90.95
3748;BME280;1889;50.058;8.688;2023-12-22T04:39:31;98893.16;;;8.87;90.30
3748;BME280;1889;50.058;8.688;2023-12-22T04:42:00;98893.09;;;9.03;89.76
3748;BME280;1889;50.058;8.688;2023-12-22T04:44:30;98909.38;;;8.71;86.90
3748;BME280;1889;50.058;8.688;2023-12-22T04:46:59;98906.02;;;8.04;86.86
3748;BME280;1889;50.058;8.688;2023-12-22T04:49:28;98920.34;;;8.24;88.81
3748;BME280;1889;50.058;8.688;2023-12-22T04:51:58;98923.08;;;8.35;87.69
3748;BME280;1889;50.058;8.688;2023-12-22T04:54:27;98935.03;;;8.13;87.75
3748;BME280;1889;50.058;8.688;2023-12-22T04:56:56;98929.59;;;7.88;86.60
3748;BME280;1889;50.058;8.688;2023-12-22T04:59:26;98934.03;;;7.86;88.07
3748;BME280;1889;50.058;8.688;2023-12-22T05:01:55;98928.63;;;7.92;88.01
3748;BME280;1889;50.058;8.688;2023-12-22T05:04:24;98925.86;;;7.81;89.95
3748;BME280;1889;50.058;8.688;2023-12-22T05:06:53;98922.78;;;7.65;88.16
3748;BME280;1889;50.058;8.688;2023-12-22T05:09:23;98916.83;;;7.76;89.11
3748;BME280;1889;50.058;8.688;2023-12-22T05:11:53;98924.59;;;7.79;89.72
3748;BME280;1889;50.058;8.688;2023-12-22T05:14:22;98935.08;;;7.45;90.43
3748;BME280;1889;50.058;8.688;2023-12-22T05:16:51;98922.24;;;7.52;92.43
3748;BME280;1889;50.058;8.688;2023-12-22T05:19:22;98941.72;;;7.58;91.75
3748;BME280;1889;50.058;8.688;2023-12-22T05:21:52;98939.17;;;7.89;91.94
3748;BME280;1889;50.058;8.688;2023-12-22T05:24:23;98961.19;;;7.64;90.49
3748;BME280;1889;50.058;8.688;2023-12-22T05:26:52;98961.45;;;7.72;95.83
3748;BME280;1889;50.058;8.688;2023-12-22T05:29:22;98969.31;;;7.17;99.78
3748;BME280;1889;50.058;8.688;2023-12-22T05:31:51;98950.42;;;6.85;99.75
3748;BME280;1889;50.058;8.688;2023-12-22T05:34:20;98959.85;;;6.73;100.00
3748;BME280;1889;50.058;8.688;2023-12-22T05:36:50;98962.63;;;6.84;100.00
3748;BME280;1889;50.058;8.688;2023-12-22T05:39:19;98952.47;;;6.90;100.00
3748;BME280;1889;50.058;8.688;2023-12-22T05:41:48;98953.78;;;6.90;100.00
3748;BME280;1889;50.058;8.688;2023-12-22T05:44:18;98951.54;;;7.13;100.00
3748;BME280;1889;50.058;8.688;2023-12-22T05:46:47;98944.81;;;7.39;100.00
3748;BME280;1889;50.058;8.688;2023-12-22T05:49:16;98925.81;;;7.66;100.00
3748;BME280;1889;50.058;8.688;2023-12-22T05:51:46;98918.25;;;7.88;100.00
3748;BME280;1889;50.058;8.688;2023-12-22T05:54:15;98936.07;;;8.08;100.00
3748;BME280;1889;50.058;8.688;2023-12-22T05:56:46;98942.61;;;8.24;100.00
3748;BME280;1889;50.058;8.688;2023-12-22T05:59:15;98955.02;;;8.35;100.00
3748;BME280;1889;50.058;8.688;2023-12-22T06:01:45;98945.03;;;8.48;99.95
3748;BME280;1889;50.058;8.688;2023-12-22T06:04:14;98949.13;;;8.58;99.50
3748;BME280;1889;50.058;8.688;2023-12-22T06:06:43;98955.05;;;8.64;98.77
3748;BME280;1889;50.058;8.688;2023-12-22T06:09:13;98939.61;;;8.68;98.57
3748;BME280;1889;50.058;8.688;2023-12-22T06:11:42;98947.25;;;8.61;96.54
3748;BME280;1889;50.058;8.688;2023-12-22T06:14:11;98948.75;;;8.55;95.28
3748;BME280;1889;50.058;8.688;2023-12-22T06:16:41;98956.87;;;8.46;93.91
3748;BME280;1889;50.058;8.688;2023-12-22T06:19:10;98959.47;;;8.62;94.59
3748;BME280;1889;50.058;8.688;2023-12-22T06:21:41;98938.82;;;8.66;93.55
3748;BME280;1889;50.058;8.688;2023-12-22T06:24:10;98942.53;;;8.74;92.44
3748;BME280;1889;50.058;8.688;2023-12-22T06:26:40;98940.42;;;8.85;92.68
3748;BME280;1889;50.058;8.688;2023-12-22T06:29:09;98941.73;;;8.85;89.74
3748;BME280;1889;50.058;8.688;2023-12-22T06:31:39;98946.22;;;8.96;89.89
3748;BME280;1889;50.058;8.688;2023-12-22T06:34:09;98946.80;;;9.06;89.24
3748;BME280;1889;50.058;8.688;2023-12-22T06:36:38;98950.39;;;8.89;86.30
3748;BME280;1889;50.058;8.688;2023-12-22T06:39:08;98957.44;;;8.87;86.67
3748;BME280;1889;50.058;8.688;2023-12-22T06:41:37;98976.92;;;8.63;86.00
3748;BME280;1889;50.058;8.688;2023-12-22T06:44:06;98995.46;;;8.57;84.95
3748;BME280;1889;50.058;8.688;2023-12-22T06:46:36;99002.52;;;8.70;86.24
3748;BME280;1889;50.058;8.688;2023-12-22T06:49:05;98994.72;;;8.83;85.49
3748;BME280;1889;50.058;8.688;2023-12-22T06:51:34;98994.39;;;8.94;85.51
3748;BME280;1889;50.058;8.688;2023-12-22T06:54:04;98996.16;;;8.93;84.81
3748;BME280;1889;50.058;8.688;2023-12-22T06:56:35;99003.05;;;8.97;84.65
3748;BME280;1889;50.058;8.688;2023-12-22T06:59:04;99001.58;;;9.02;84.29
3748;BME280;1889;50.058;8.688;2023-12-22T07:01:35;99000.11;;;9.08;83.59
3748;BME280;1889;50.058;8.688;2023-12-22T07:04:05;98994.37;;;9.08;82.44
3748;BME280;1889;50.058;8.688;2023-12-22T07:06:35;98972.03;;;9.10;82.69
3748;BME280;1889;50.058;8.688;2023-12-22T07:11:50;98991.72;;;9.10;81.20
3748;BME280;1889;50.058;8.688;2023-12-22T07:14:21;98998.06;;;8.73;79.49
3748;BME280;1889;50.058;8.688;2023-12-22T07:16:50;99009.41;;;8.74;81.26
3748;BME280;1889;50.058;8.688;2023-12-22T07:19:19;99022.50;;;8.90;80.46
3748;BME280;1889;50.058;8.688;2023-12-22T07:21:49;99018.48;;;8.77;80.72
3748;BME280;1889;50.058;8.688;2023-12-22T07:24:18;99024.78;;;9.01;80.60
3748;BME280;1889;50.058;8.688;2023-12-22T07:26:47;99026.80;;;9.22;79.62
3748;BME280;1889;50.058;8.688;2023-12-22T07:29:17;99031.09;;;9.39;79.90
3748;BME280;1889;50.058;8.688;2023-12-22T07:31:46;99048.49;;;9.42;78.86
3748;BME280;1889;50.058;8.688;2023-12-22T07:34:16;99048.45;;;9.43;77.12
3748;BME280;1889;50.058;8.688;2023-12-22T07:36:46;99054.29;;;9.53;78.35
3748;BME280;1889;50.058;8.688;2023-12-22T07:39:16;99049.00;;;9.68;77.91
3748;BME280;1889;50.058;8.688;2023-12-22T07:41:46;99057.05;;;9.76;78.41
3748;BME280;1889;50.058;8.688;2023-12-22T07:44:16;99058.90;;;9.87;78.33
3748;BME280;1889;50.058;8.688;2023-12-22T07:46:53;99055.45;;;9.57;77.01
3748;BME280;1889;50.058;8.688;2023-12-22T07:49:17;99053.92;;;9.50;78.16
3748;BME280;1889;50.058;8.688;2023-12-22T07:51:46;99071.08;;;9.62;78.46
3748;BME280;1889;50.058;8.688;2023-12-22T07:54:15;99074.50;;;9.79;77.96
3748;BME280;1889;50.058;8.688;2023-12-22T07:56:45;99077.16;;;9.64;77.55
3748;BME280;1889;50.058;8.688;2023-12-22T07:59:14;99067.50;;;9.50;78.17
3748;BME280;1889;50.058;8.688;2023-12-22T08:01:44;99051.98;;;9.42;79.42
3748;BME280;1889;50.058;8.688;2023-12-22T08:04:13;99051.38;;;9.62;79.31
3748;BME280;1889;50.058;8.688;2023-12-22T08:06:42;99054.70;;;9.54;79.19
3748;BME280;1889;50.058;8.688;2023-12-22T08:09:12;99058.19;;;9.54;78.97
3748;BME280;1889;50.058;8.688;2023-12-22T08:11:41;99062.25;;;9.50;79.17
3748;BME280;1889;50.058;8.688;2023-12-22T08:14:10;99077.04;;;9.39;79.08
3748;BME280;1889;50.058;8.688;2023-12-22T08:16:39;99074.70;;;9.58;79.81
3748;BME280;1889;50.058;8.688;2023-12-22T08:19:09;99071.09;;;9.75;79.18
3748;BME280;1889;50.058;8.688;2023-12-22T08:21:38;99066.74;;;9.74;79.00
3748;BME280;1889;50.058;8.688;2023-12-22T08:24:07;99070.34;;;9.72;79.20
3748;BME280;1889;50.058;8.688;2023-12-22T08:26:37;99071.05;;;9.90;78.89
3748;BME280;1889;50.058;8.688;2023-12-22T08:29:06;99067.52;;;9.91;78.83
3748;BME280;1889;50.058;8.688;2023-12-22T08:31:36;99084.44;;;9.97;78.60
3748;BME280;1889;50.058;8.688;2023-12-22T08:34:05;99080.98;;;9.95;78.64
3748;BME280;1889;50.058;8.688;2023-12-22T08:36:35;99082.09;;;9.88;78.59
3748;BME280;1889;50.058;8.688;2023-12-22T08:39:04;99074.66;;;9.87;78.52
3748;BME280;1889;50.058;8.688;2023-12-22T08:41:33;99086.20;;;9.69;78.01
3748;BME280;1889;50.058;8.688;2023-12-22T08:44:05;99102.27;;;9.58;78.96
3748;BME280;1889;50.058;8.688;2023-12-22T08:46:35;99079.97;;;9.29;80.72
3748;BME280;1889;50.058;8.688;2023-12-22T08:49:04;99113.42;;;9.51;80.42
3748;BME280;1889;50.058;8.688;2023-12-22T08:51:34;99110.72;;;9.40;78.49
3748;BME280;1889;50.058;8.688;2023-12-22T08:54:06;99125.27;;;8.57;80.50
3748;BME280;1889;50.058;8.688;2023-12-22T08:56:35;99122.72;;;8.19;84.76
3748;BME280;1889;50.058;8.688;2023-12-22T08:59:04;99128.69;;;8.24;85.74
3748;BME280;1889;50.058;8.688;2023-12-22T09:01:35;99137.42;;;8.24;85.85
3748;BME280;1889;50.058;8.688;2023-12-22T09:04:05;99122.63;;;8.22;86.27
3748;BME280;1889;50.058;8.688;2023-12-22T09:06:34;99122.81;;;8.33;84.86
3748;BME280;1889;50.058;8.688;2023-12-22T09:09:04;99125.33;;;8.54;84.79
3748;BME280;1889;50.058;8.688;2023-12-22T09:11:34;99127.13;;;8.68;83.84
3748;BME280;1889;50.058;8.688;2023-12-22T09:14:05;99117.27;;;8.78;82.77
3748;BME280;1889;50.058;8.688;2023-12-22T09:16:38;99115.50;;;8.95;83.11
3748;BME280;1889;50.058;8.688;2023-12-22T09:19:07;99099.92;;;9.19;82.72
3748;BME280;1889;50.058;8.688;2023-12-22T09:21:36;99105.10;;;9.37;82.04
3748;BME280;1889;50.058;8.688;2023-12-22T09:24:06;99099.06;;;9.34;81.34
3748;BME280;1889;50.058;8.688;2023-12-22T09:26:35;99099.21;;;9.44;80.67
3748;BME280;1889;50.058;8.688;2023-12-22T09:29:04;99108.13;;;9.53;79.58
3748;BME280;1889;50.058;8.688;2023-12-22T09:31:34;99104.04;;;9.57;79.08
3748;BME280;1889;50.058;8.688;2023-12-22T09:34:06;99117.09;;;9.61;79.46
3748;BME280;1889;50.058;8.688;2023-12-22T09:36:35;99120.58;;;9.61;79.15
3748;BME280;1889;50.058;8.688;2023-12-22T09:39:04;99110.09;;;9.74;79.46
3748;BME280;1889;50.058;8.688;2023-12-22T09:41:34;99120.36;;;9.82;79.19
3748;BME280;1889;50.058;8.688;2023-12-22T09:44:04;99116.63;;;10.04;78.51
3748;BME280;1889;50.058;8.688;2023-12-22T09:46:35;99110.31;;;10.09;78.53
3748;BME280;1889;50.058;8.688;2023-12-22T09:49:04;99101.56;;;9.95;78.88
3748;BME280;1889;50.058;8.688;2023-12-22T09:51:34;99108.30;;;9.89;79.76
3748;BME280;1889;50.058;8.688;2023-12-22T09:54:05;99113.14;;;10.03;79.77
3748;BME280;1889;50.058;8.688;2023-12-22T09:56:35;99111.36;;;10.18;79.46
3748;BME280;1889;50.058;8.688;2023-12-22T09:59:12;99088.73;;;10.13;79.81
3748;BME280;1889;50.058;8.688;2023-12-22T10:01:45;99075.89;;;10.04;80.39
3748;BME280;1889;50.058;8.688;2023-12-22T10:04:16;99077.66;;;9.75;81.99
3748;BME280;1889;50.058;8.688;2023-12-22T10:06:47;99073.50;;;9.55;84.70
3748;BME280;1889;50.058;8.688;2023-12-22T10:09:17;99072.00;;;9.74;84.31
3748;BME280;1889;50.058;8.688;2023-12-22T10:11:49;99067.10;;;9.64;85.55
3748;BME280;1889;50.058;8.688;2023-12-22T10:14:20;99063.54;;;9.79;85.25
3748;BME280;1889;50.058;8.688;2023-12-22T10:16:53;99062.39;;;9.73;85.89
3748;BME280;1889;50.058;8.688;2023-12-22T10:19:24;99053.14;;;9.62;87.35
3748;BME280;1889;50.058;8.688;2023-12-22T10:21:53;99047.63;;;9.41;88.67
3748;BME280;1889;50.058;8.688;2023-12-22T10:24:42;99051.25;;;9.52;89.21
3748;BME280;1889;50.058;8.688;2023-12-22T10:27:12;99052.09;;;9.67;88.78
3748;BME280;1889;50.058;8.688;2023-12-22T10:29:42;99051.34;;;9.90;87.33
3748;BME280;1889;50.058;8.688;2023-12-22T10:32:11;99048.97;;;9.69;88.12
3748;BME280;1889;50.058;8.688;2023-12-22T10:34:41;99044.94;;;9.57;89.03
3748;BME280;1889;50.058;8.688;2023-12-22T10:37:11;99038.95;;;9.67;89.10
3748;BME280;1889;50.058;8.688;2023-12-22T10:39:42;99029.17;;;9.72;88.88
3748;BME280;1889;50.058;8.688;2023-12-22T10:42:11;99017.64;;;9.63;89.26
3748;BME280;1889;50.058;8.688;2023-12-22T10:44:42;99008.78;;;9.66;88.99
3748;BME280;1889;50.058;8.688;2023-12-22T10:47:11;98988.40;;;9.87;88.52
3748;BME280;1889;50.058;8.688;2023-12-22T10:49:41;98996.06;;;9.67;88.75
3748;BME280;1889;50.058;8.688;2023-12-22T10:52:15;98988.23;;;9.91;88.79
3748;BME280;1889;50.058;8.688;2023-12-22T10:54:46;98985.88;;;9.97;87.92
3748;BME280;1889;50.058;8.688;2023-12-22T10:57:17;98981.77;;;9.75;89.04
3748;BME280;1889;50.058;8.688;2023-12-22T10:59:48;98981.20;;;9.92;89.08
3748;BME280;1889;50.058;8.688;2023-12-22T11:02:18;98979.08;;;9.90;87.79
3748;BME280;1889;50.058;8.688;2023-12-22T11:07:29;98968.33;;;9.84;88.61
3748;BME280;1889;50.058;8.688;2023-12-22T11:10:04;98957.58;;;9.79;88.68
3748;BME280;1889;50.058;8.688;2023-12-22T11:12:35;98962.81;;;10.05;88.81
3748;BME280;1889;50.058;8.688;2023-12-22T11:15:06;98962.27;;;9.95;87.84
3748;BME280;1889;50.058;8.688;2023-12-22T11:17:37;98956.63;;;10.06;88.07
3748;BME280;1889;50.058;8.688;2023-12-22T11:20:10;98950.08;;;9.93;87.88
3748;BME280;1889;50.058;8.688;2023-12-22T11:22:42;98948.00;;;9.89;89.38
3748;BME280;1889;50.058;8.688;2023-12-22T11:25:12;98941.70;;;9.95;88.89
3748;BME280;1889;50.058;8.688;2023-12-22T11:27:43;98939.75;;;10.13;88.49
3748;BME280;1889;50.058;8.688;2023-12-22T11:30:14;98930.44;;;10.29;87.61
3748;BME280;1889;50.058;8.688;2023-12-22T11:32:44;98936.07;;;10.30;86.62
3748;BME280;1889;50.058;8.688;2023-12-22T11:35:14;98921.84;;;10.24;87.32
3748;BME280;1889;50.058;8.688;2023-12-22T11:37:46;98921.33;;;10.38;86.63
3748;BME280;1889;50.058;8.688;2023-12-22T11:40:15;98917.69;;;10.42;85.87
3748;BME280;1889;50.058;8.688;2023-12-22T11:42:47;98906.61;;;10.46;86.25
3748;BME280;1889;50.058;8.688;2023-12-22T11:45:18;98903.63;;;10.43;85.84
3748;BME280;1889;50.058;8.688;2023-12-22T11:47:47;98899.55;;;10.46;85.71
3748;BME280;1889;50.058;8.688;2023-12-22T11:50:30;98909.75;;;10.44;85.51
3748;BME280;1889;50.058;8.688;2023-12-22T11:53:18;98893.52;;;10.44;86.32
3748;BME280;1889;50.058;8.688;2023-12-22T11:56:01;98893.34;;;10.60;86.07
3748;BME280;1889;50.058;8.688;2023-12-22T11:58:43;98892.25;;;10.43;86.75
3748;BME280;1889;50.058;8.688;2023-12-22T12:01:14;98890.55;;;10.53;86.76
3748;BME280;1889;50.058;8.688;2023-12-22T12:03:48;98885.20;;;10.55;87.39
3748;BME280;1889;50.058;8.688;2023-12-22T12:09:03;98871.38;;;10.50;90.24
3748;BME280;1889;50.058;8.688;2023-12-22T12:14:35;98866.16;;;10.48;90.30
3748;BME280;1889;50.058;8.688;2023-12-22T12:17:03;98862.84;;;10.55;90.91
3748;BME280;1889;50.058;8.688;2023-12-22T12:19:32;98846.33;;;10.51;90.64
3748;BME280;1889;50.058;8.688;2023-12-22T12:22:02;98843.19;;;10.42;90.74
3748;BME280;1889;50.058;8.688;2023-12-22T12:24:31;98831.45;;;10.39;90.86
3748;BME280;1889;50.058;8.688;2023-12-22T12:27:02;98840.91;;;10.32;90.39
3748;BME280;1889;50.058;8.688;2023-12-22T12:29:33;98851.59;;;10.40;90.10
3748;BME280;1889;50.058;8.688;2023-12-22T12:32:06;98853.89;;;10.37;89.53
3748;BME280;1889;50.058;8.688;2023-12-22T12:34:36;98839.23;;;10.30;89.20
3748;BME280;1889;50.058;8.688;2023-12-22T12:37:06;98840.85;;;10.34;89.11
3748;BME280;1889;50.058;8.688;2023-12-22T12:39:35;98857.03;;;10.35;88.69
3748;BME280;1889;50.058;8.688;2023-12-22T12:42:07;98852.39;;;10.42;88.96
3748;BME280;1889;50.058;8.688;2023-12-22T12:44:37;98848.85;;;10.43;89.24
3748;BME280;1889;50.058;8.688;2023-12-22T12:47:15;98861.52;;;10.55;88.85
3748;BME280;1889;50.058;8.688;2023-12-22T12:49:44;98854.84;;;10.69;88.50
3748;BME280;1889;50.058;8.688;2023-12-22T12:52:14;98844.67;;;10.60;88.43
3748;BME280;1889;50.058;8.688;2023-12-22T12:54:44;98851.65;;;10.61;88.86
3748;BME280;1889;50.058;8.688;2023-12-22T12:57:16;98848.32;;;10.68;89.25
3748;BME280;1889;50.058;8.688;2023-12-22T12:59:48;98858.49;;;10.77;89.17
3748;BME280;1889;50.058;8.688;2023-12-22T13:02:18;98854.70;;;10.73;89.90
3748;BME280;1889;50.058;8.688;2023-12-22T13:04:49;98849.09;;;10.82;90.49
3748;BME280;1889;50.058;8.688;2023-12-22T13:07:25;98855.05;;;10.75;91.55
3748;BME280;1889;50.058;8.688;2023-12-22T13:09:55;98865.87;;;10.56;93.75
3748;BME280;1889;50.058;8.688;2023-12-22T13:12:24;98867.19;;;10.67;94.88
3748;BME280;1889;50.058;8.688;2023-12-22T13:14:55;98870.55;;;10.71;97.04
3748;BME280;1889;50.058;8.688;2023-12-22T13:17:26;98867.78;;;10.52;99.78
3748;BME280;1889;50.058;8.688;2023-12-22T13:19:55;98868.34;;;10.49;100.00
3748;BME280;1889;50.058;8.688;2023-12-22T13:22:24;98867.59;;;10.57;100.00
3748;BME280;1889;50.058;8.688;2023-12-22T13:24:55;98873.45;;;10.53;100.00
3748;BME280;1889;50.058;8.688;2023-12-22T13:27:28;98874.03;;;10.13;100.00
3748;BME280;1889;50.058;8.688;2023-12-22T13:29:57;98867.03;;;10.25;100.00
3748;BME280;1889;50.058;8.688;2023-12-22T13:32:26;98868.93;;;10.45;100.00
3748;BME280;1889;50.058;8.688;2023-12-22T13:34:56;98870.73;;;10.31;100.00
3748;BME280;1889;50.058;8.688;2023-12-22T13:37:26;98866.23;;;10.35;100.00
3748;BME280;1889;50.058;8.688;2023-12-22T13:39:57;98871.56;;;10.45;100.00
3748;BME280;1889;50.058;8.688;2023-12-22T13:42:26;98877.66;;;10.57;100.00
3748;BME280;1889;50.058;8.688;2023-12-22T13:44:56;98887.44;;;10.65;100.00
3748;BME280;1889;50.058;8.688;2023-12-22T13:47:25;98876.23;;;10.60;100.00
3748;BME280;1889;50.058;8.688;2023-12-22T13:49:55;98864.38;;;10.72;100.00
3748;BME280;1889;50.058;8.688;2023-12-22T13:54:57;98880.01;;;10.98;100.00
3748;BME280;1889;50.058;8.688;2023-12-22T13:57:28;98880.00;;;11.10;100.00
3748;BME280;1889;50.058;8.688;2023-12-22T13:59:57;98884.00;;;10.75;100.00